sensor_id;sensor_type;location;lat;lon;timestamp;temperature;humidity
16384;DHT22;8301;51.440;6.610;2023-05-10T00:00:10;13.00;99.90
16384;DHT22;8301;51.440;6.610;2023-05-10T00:02:40;12.90;99.90
16384;DHT22;8301;51.440;6.610;2023-05-10T00:05:07;12.90;99.90
16384;DHT22;8301;51.440;6.610;2023-05-10T00:07:33;12.90;99.90
16384;DHT22;8301;51.440;6.610;2023-05-10T00:10:00;12.80;99.90
16384;DHT22;8301;51.440;6.610;2023-05-10T00:12:27;12.90;99.90
16384;DHT22;8301;51.440;6.610;2023-05-10T00:14:54;12.90;99.90
16384;DHT22;8301;51.440;6.610;2023-05-10T00:17:21;12.90;99.90
16384;DHT22;8301;51.440;6.610;2023-05-10T00:19:47;12.90;99.90
16384;DHT22;8301;51.440;6.610;2023-05-10T00:22:14;12.90;99.90
16384;DHT22;8301;51.440;6.610;2023-05-10T00:24:41;12.80;99.90
16384;DHT22;8301;51.440;6.610;2023-05-10T00:27:08;12.90;99.90
16384;DHT22;8301;51.440;6.610;2023-05-10T00:29:35;12.90;99.90
16384;DHT22;8301;51.440;6.610;2023-05-10T00:32:01;12.90;99.90
16384;DHT22;8301;51.440;6.610;2023-05-10T00:34:28;12.80;99.90
16384;DHT22;8301;51.440;6.610;2023-05-10T00:36:57;12.80;99.90
16384;DHT22;8301;51.440;6.610;2023-05-10T00:39:24;12.80;99.90
16384;DHT22;8301;51.440;6.610;2023-05-10T00:41:52;12.80;99.90
16384;DHT22;8301;51.440;6.610;2023-05-10T00:44:19;12.80;99.90
16384;DHT22;8301;51.440;6.610;2023-05-10T00:46:46;12.70;99.90
16384;DHT22;8301;51.440;6.610;2023-05-10T00:49:14;12.70;99.90
16384;DHT22;8301;51.440;6.610;2023-05-10T00:51:41;12.70;99.90
16384;DHT22;8301;51.440;6.610;2023-05-10T00:54:11;12.70;99.90
16384;DHT22;8301;51.440;6.610;2023-05-10T00:56:38;12.70;99.90
16384;DHT22;8301;51.440;6.610;2023-05-10T00:59:04;12.70;99.90
16384;DHT22;8301;51.440;6.610;2023-05-10T01:01:31;12.70;99.90
16384;DHT22;8301;51.440;6.610;2023-05-10T01:03:59;12.70;99.90
16384;DHT22;8301;51.440;6.610;2023-05-10T01:06:26;12.70;99.90
16384;DHT22;8301;51.440;6.610;2023-05-10T01:08:54;12.70;99.90
16384;DHT22;8301;51.440;6.610;2023-05-10T01:11:21;12.70;99.90
16384;DHT22;8301;51.440;6.610;2023-05-10T01:13:50;12.70;99.90
16384;DHT22;8301;51.440;6.610;2023-05-10T01:16:16;12.70;99.90
16384;DHT22;8301;51.440;6.610;2023-05-10T01:18:43;12.70;99.90
16384;DHT22;8301;51.440;6.610;2023-05-10T01:29:43;12.70;99.90
16384;DHT22;8301;51.440;6.610;2023-05-10T01:32:16;12.70;99.90
16384;DHT22;8301;51.440;6.610;2023-05-10T01:35:00;12.70;99.90
16384;DHT22;8301;51.440;6.610;2023-05-10T01:37:32;12.70;99.90
16384;DHT22;8301;51.440;6.610;2023-05-10T01:40:10;12.70;99.90
16384;DHT22;8301;51.440;6.610;2023-05-10T01:42:42;12.70;99.90
16384;DHT22;8301;51.440;6.610;2023-05-10T01:45:11;12.70;99.90
16384;DHT22;8301;51.440;6.610;2023-05-10T01:47:40;12.80;99.90
16384;DHT22;8301;51.440;6.610;2023-05-10T01:50:09;12.80;99.90
16384;DHT22;8301;51.440;6.610;2023-05-10T01:52:40;12.80;99.90
16384;DHT22;8301;51.440;6.610;2023-05-10T01:55:11;12.80;99.90
16384;DHT22;8301;51.440;6.610;2023-05-10T01:57:38;12.80;99.90
16384;DHT22;8301;51.440;6.610;2023-05-10T02:00:06;12.80;99.90
16384;DHT22;8301;51.440;6.610;2023-05-10T02:02:36;12.70;99.90
16384;DHT22;8301;51.440;6.610;2023-05-10T02:05:06;12.80;99.90
16384;DHT22;8301;51.440;6.610;2023-05-10T02:07:34;12.80;99.90
16384;DHT22;8301;51.440;6.610;2023-05-10T02:10:02;12.70;99.90
16384;DHT22;8301;51.440;6.610;2023-05-10T02:12:31;12.70;99.90
16384;DHT22;8301;51.440;6.610;2023-05-10T02:14:59;12.70;99.90
16384;DHT22;8301;51.440;6.610;2023-05-10T02:17:27;12.70;99.90
16384;DHT22;8301;51.440;6.610;2023-05-10T02:19:54;12.70;99.90
16384;DHT22;8301;51.440;6.610;2023-05-10T02:22:21;12.70;99.90
16384;DHT22;8301;51.440;6.610;2023-05-10T02:24:49;12.70;99.90
16384;DHT22;8301;51.440;6.610;2023-05-10T02:27:16;12.60;99.90
16384;DHT22;8301;51.440;6.610;2023-05-10T02:29:44;12.50;99.90
16384;DHT22;8301;51.440;6.610;2023-05-10T02:32:10;12.50;99.90
16384;DHT22;8301;51.440;6.610;2023-05-10T02:34:38;12.50;99.90
16384;DHT22;8301;51.440;6.610;2023-05-10T02:37:05;12.50;99.90
16384;DHT22;8301;51.440;6.610;2023-05-10T02:39:33;12.50;99.90
16384;DHT22;8301;51.440;6.610;2023-05-10T02:42:00;12.50;99.90
16384;DHT22;8301;51.440;6.610;2023-05-10T02:44:28;12.60;99.90
16384;DHT22;8301;51.440;6.610;2023-05-10T02:46:58;12.60;99.90
16384;DHT22;8301;51.440;6.610;2023-05-10T02:49:24;12.50;99.90
16384;DHT22;8301;51.440;6.610;2023-05-10T02:51:55;12.50;99.90
16384;DHT22;8301;51.440;6.610;2023-05-10T02:54:22;12.60;99.90
16384;DHT22;8301;51.440;6.610;2023-05-10T02:56:50;12.60;99.90
16384;DHT22;8301;51.440;6.610;2023-05-10T02:59:19;12.50;99.90
16384;DHT22;8301;51.440;6.610;2023-05-10T03:01:46;12.60;99.90
16384;DHT22;8301;51.440;6.610;2023-05-10T03:04:13;12.50;99.90
16384;DHT22;8301;51.440;6.610;2023-05-10T03:06:39;12.60;99.90
16384;DHT22;8301;51.440;6.610;2023-05-10T03:09:06;12.60;99.90
16384;DHT22;8301;51.440;6.610;2023-05-10T03:17:00;12.50;99.90
16384;DHT22;8301;51.440;6.610;2023-05-10T03:19:43;12.50;99.90
16384;DHT22;8301;51.440;6.610;2023-05-10T03:22:08;12.50;99.90
16384;DHT22;8301;51.440;6.610;2023-05-10T03:24:34;12.50;99.90
16384;DHT22;8301;51.440;6.610;2023-05-10T03:27:02;12.50;99.90
16384;DHT22;8301;51.440;6.610;2023-05-10T03:29:30;12.50;99.90
16384;DHT22;8301;51.440;6.610;2023-05-10T03:32:02;12.50;99.90
16384;DHT22;8301;51.440;6.610;2023-05-10T03:34:26;12.50;99.90
16384;DHT22;8301;51.440;6.610;2023-05-10T03:36:52;12.50;99.90
16384;DHT22;8301;51.440;6.610;2023-05-10T03:39:19;12.40;99.90
16384;DHT22;8301;51.440;6.610;2023-05-10T03:41:47;12.50;99.90
16384;DHT22;8301;51.440;6.610;2023-05-10T03:44:14;12.50;99.90
16384;DHT22;8301;51.440;6.610;2023-05-10T03:46:40;12.50;99.90
16384;DHT22;8301;51.440;6.610;2023-05-10T03:49:07;12.50;99.90
16384;DHT22;8301;51.440;6.610;2023-05-10T03:51:34;12.50;99.90
16384;DHT22;8301;51.440;6.610;2023-05-10T03:54:01;12.50;99.90
16384;DHT22;8301;51.440;6.610;2023-05-10T03:56:28;12.50;99.90
16384;DHT22;8301;51.440;6.610;2023-05-10T03:58:54;12.50;99.90
16384;DHT22;8301;51.440;6.610;2023-05-10T04:01:21;12.60;99.90
16384;DHT22;8301;51.440;6.610;2023-05-10T04:03:48;12.60;99.90
16384;DHT22;8301;51.440;6.610;2023-05-10T04:06:15;12.60;99.90
16384;DHT22;8301;51.440;6.610;2023-05-10T04:08:42;12.60;99.90
16384;DHT22;8301;51.440;6.610;2023-05-10T04:11:09;12.60;99.90
16384;DHT22;8301;51.440;6.610;2023-05-10T04:13:36;12.60;99.90
16384;DHT22;8301;51.440;6.610;2023-05-10T04:16:03;12.70;99.90
16384;DHT22;8301;51.440;6.610;2023-05-10T04:18:30;12.70;99.90
16384;DHT22;8301;51.440;6.610;2023-05-10T04:20:57;12.70;99.90
16384;DHT22;8301;51.440;6.610;2023-05-10T04:23:24;12.70;99.90
16384;DHT22;8301;51.440;6.610;2023-05-10T04:25:51;12.70;99.90
16384;DHT22;8301;51.440;6.610;2023-05-10T04:28:18;12.70;99.90
16384;DHT22;8301;51.440;6.610;2023-05-10T04:30:45;12.70;99.90
16384;DHT22;8301;51.440;6.610;2023-05-10T04:33:12;12.70;99.90
16384;DHT22;8301;51.440;6.610;2023-05-10T04:35:40;12.80;99.90
16384;DHT22;8301;51.440;6.610;2023-05-10T04:38:09;12.70;99.90
16384;DHT22;8301;51.440;6.610;2023-05-10T04:40:37;12.80;99.90
16384;DHT22;8301;51.440;6.610;2023-05-10T04:43:04;12.80;99.90
16384;DHT22;8301;51.440;6.610;2023-05-10T04:45:31;12.80;99.90
16384;DHT22;8301;51.440;6.610;2023-05-10T04:47:58;12.80;99.90
16384;DHT22;8301;51.440;6.610;2023-05-10T04:50:25;12.70;99.90
16384;DHT22;8301;51.440;6.610;2023-05-10T04:52:51;12.80;99.90
16384;DHT22;8301;51.440;6.610;2023-05-10T04:55:18;12.70;99.90
16384;DHT22;8301;51.440;6.610;2023-05-10T04:57:45;12.80;99.90
16384;DHT22;8301;51.440;6.610;2023-05-10T05:00:12;12.80;99.90
16384;DHT22;8301;51.440;6.610;2023-05-10T05:02:42;12.80;99.90
16384;DHT22;8301;51.440;6.610;2023-05-10T05:05:07;12.90;99.90
16384;DHT22;8301;51.440;6.610;2023-05-10T05:07:34;12.90;99.90
16384;DHT22;8301;51.440;6.610;2023-05-10T05:10:01;12.90;99.90
16384;DHT22;8301;51.440;6.610;2023-05-10T05:12:28;13.00;99.90
16384;DHT22;8301;51.440;6.610;2023-05-10T05:14:55;13.00;99.90
16384;DHT22;8301;51.440;6.610;2023-05-10T05:17:22;13.00;99.90
16384;DHT22;8301;51.440;6.610;2023-05-10T05:19:50;13.00;99.90
16384;DHT22;8301;51.440;6.610;2023-05-10T05:22:17;13.00;99.90
16384;DHT22;8301;51.440;6.610;2023-05-10T05:24:46;13.00;99.90
16384;DHT22;8301;51.440;6.610;2023-05-10T05:27:13;12.90;99.90
16384;DHT22;8301;51.440;6.610;2023-05-10T05:29:39;13.00;99.90
16384;DHT22;8301;51.440;6.610;2023-05-10T05:32:06;13.00;99.90
16384;DHT22;8301;51.440;6.610;2023-05-10T05:34:34;13.00;99.90
16384;DHT22;8301;51.440;6.610;2023-05-10T05:37:01;12.90;99.90
16384;DHT22;8301;51.440;6.610;2023-05-10T05:39:27;12.90;99.90
16384;DHT22;8301;51.440;6.610;2023-05-10T05:41:54;12.90;99.90
16384;DHT22;8301;51.440;6.610;2023-05-10T05:44:21;13.00;99.90
16384;DHT22;8301;51.440;6.610;2023-05-10T05:46:48;13.00;99.90
16384;DHT22;8301;51.440;6.610;2023-05-10T05:49:15;13.00;99.90
16384;DHT22;8301;51.440;6.610;2023-05-10T05:51:41;13.00;99.90
16384;DHT22;8301;51.440;6.610;2023-05-10T05:54:08;13.00;99.90
16384;DHT22;8301;51.440;6.610;2023-05-10T05:56:35;12.90;99.90
16384;DHT22;8301;51.440;6.610;2023-05-10T05:59:03;13.00;99.90
16384;DHT22;8301;51.440;6.610;2023-05-10T06:01:30;13.00;99.90
16384;DHT22;8301;51.440;6.610;2023-05-10T06:03:57;12.90;99.90
16384;DHT22;8301;51.440;6.610;2023-05-10T06:06:24;12.90;99.90
16384;DHT22;8301;51.440;6.610;2023-05-10T06:08:51;12.90;99.90
16384;DHT22;8301;51.440;6.610;2023-05-10T06:11:17;12.90;99.90
16384;DHT22;8301;51.440;6.610;2023-05-10T06:13:44;13.00;99.90
16384;DHT22;8301;51.440;6.610;2023-05-10T06:16:11;13.00;99.90
16384;DHT22;8301;51.440;6.610;2023-05-10T06:18:39;13.00;99.90
16384;DHT22;8301;51.440;6.610;2023-05-10T06:21:06;13.00;99.90
16384;DHT22;8301;51.440;6.610;2023-05-10T06:23:33;13.00;99.90
16384;DHT22;8301;51.440;6.610;2023-05-10T06:25:59;13.00;99.90
16384;DHT22;8301;51.440;6.610;2023-05-10T06:28:26;13.10;99.90
16384;DHT22;8301;51.440;6.610;2023-05-10T06:30:53;13.10;99.90
16384;DHT22;8301;51.440;6.610;2023-05-10T06:33:20;13.10;99.90
16384;DHT22;8301;51.440;6.610;2023-05-10T06:35:47;13.10;99.90
16384;DHT22;8301;51.440;6.610;2023-05-10T06:38:14;13.10;99.90
16384;DHT22;8301;51.440;6.610;2023-05-10T06:40:42;13.00;99.90
16384;DHT22;8301;51.440;6.610;2023-05-10T06:43:09;13.10;99.90
16384;DHT22;8301;51.440;6.610;2023-05-10T06:45:36;13.10;99.90
16384;DHT22;8301;51.440;6.610;2023-05-10T06:48:03;13.10;99.90
16384;DHT22;8301;51.440;6.610;2023-05-10T06:50:30;13.20;99.90
16384;DHT22;8301;51.440;6.610;2023-05-10T06:52:59;13.20;99.90
16384;DHT22;8301;51.440;6.610;2023-05-10T06:55:26;13.10;99.90
16384;DHT22;8301;51.440;6.610;2023-05-10T06:57:52;13.10;99.90
16384;DHT22;8301;51.440;6.610;2023-05-10T07:00:19;13.20;99.90
16384;DHT22;8301;51.440;6.610;2023-05-10T07:02:46;13.20;99.90
16384;DHT22;8301;51.440;6.610;2023-05-10T07:05:14;13.20;99.90
16384;DHT22;8301;51.440;6.610;2023-05-10T07:07:41;13.10;99.90
16384;DHT22;8301;51.440;6.610;2023-05-10T07:10:08;13.00;99.90
16384;DHT22;8301;51.440;6.610;2023-05-10T07:12:35;13.20;99.90
16384;DHT22;8301;51.440;6.610;2023-05-10T07:15:02;13.30;99.90
16384;DHT22;8301;51.440;6.610;2023-05-10T07:17:29;13.20;99.90
16384;DHT22;8301;51.440;6.610;2023-05-10T07:19:55;13.20;99.90
16384;DHT22;8301;51.440;6.610;2023-05-10T07:22:22;13.30;99.90
16384;DHT22;8301;51.440;6.610;2023-05-10T07:24:49;13.30;99.90
16384;DHT22;8301;51.440;6.610;2023-05-10T07:27:16;13.40;99.90
16384;DHT22;8301;51.440;6.610;2023-05-10T07:29:43;13.50;99.90
16384;DHT22;8301;51.440;6.610;2023-05-10T07:32:09;13.70;99.90
16384;DHT22;8301;51.440;6.610;2023-05-10T07:34:36;13.70;99.90
16384;DHT22;8301;51.440;6.610;2023-05-10T07:37:03;13.80;99.90
16384;DHT22;8301;51.440;6.610;2023-05-10T07:39:32;13.80;99.90
16384;DHT22;8301;51.440;6.610;2023-05-10T07:41:59;13.70;99.90
16384;DHT22;8301;51.440;6.610;2023-05-10T07:44:26;13.90;99.90
16384;DHT22;8301;51.440;6.610;2023-05-10T07:46:53;13.90;99.90
16384;DHT22;8301;51.440;6.610;2023-05-10T07:49:19;13.80;99.90
16384;DHT22;8301;51.440;6.610;2023-05-10T07:51:47;13.60;99.90
16384;DHT22;8301;51.440;6.610;2023-05-10T07:54:14;13.70;99.90
16384;DHT22;8301;51.440;6.610;2023-05-10T07:56:40;13.70;99.90
16384;DHT22;8301;51.440;6.610;2023-05-10T07:59:09;13.70;99.90
16384;DHT22;8301;51.440;6.610;2023-05-10T08:01:37;13.70;99.90
16384;DHT22;8301;51.440;6.610;2023-05-10T08:04:04;13.80;99.90
16384;DHT22;8301;51.440;6.610;2023-05-10T08:06:30;13.80;99.90
16384;DHT22;8301;51.440;6.610;2023-05-10T08:08:57;14.00;99.90
16384;DHT22;8301;51.440;6.610;2023-05-10T08:11:24;14.10;99.90
16384;DHT22;8301;51.440;6.610;2023-05-10T08:13:51;14.00;99.90
16384;DHT22;8301;51.440;6.610;2023-05-10T08:16:18;14.20;99.90
16384;DHT22;8301;51.440;6.610;2023-05-10T08:18:45;14.40;99.90
16384;DHT22;8301;51.440;6.610;2023-05-10T08:21:13;14.60;99.90
16384;DHT22;8301;51.440;6.610;2023-05-10T08:23:40;14.70;99.90
16384;DHT22;8301;51.440;6.610;2023-05-10T08:26:06;14.80;99.90
16384;DHT22;8301;51.440;6.610;2023-05-10T08:28:33;14.70;99.90
16384;DHT22;8301;51.440;6.610;2023-05-10T08:31:02;14.90;99.90
16384;DHT22;8301;51.440;6.610;2023-05-10T08:33:29;14.90;99.90
16384;DHT22;8301;51.440;6.610;2023-05-10T08:35:56;14.80;99.90
16384;DHT22;8301;51.440;6.610;2023-05-10T08:38:23;14.70;99.90
16384;DHT22;8301;51.440;6.610;2023-05-10T08:40:50;14.60;99.90
16384;DHT22;8301;51.440;6.610;2023-05-10T08:43:20;14.70;99.90
16384;DHT22;8301;51.440;6.610;2023-05-10T08:45:47;14.70;99.90
16384;DHT22;8301;51.440;6.610;2023-05-10T08:48:15;14.70;99.90
16384;DHT22;8301;51.440;6.610;2023-05-10T08:50:43;14.90;99.90
16384;DHT22;8301;51.440;6.610;2023-05-10T08:53:11;15.00;99.90
16384;DHT22;8301;51.440;6.610;2023-05-10T08:55:39;15.20;99.90
16384;DHT22;8301;51.440;6.610;2023-05-10T08:58:09;15.00;99.90
16384;DHT22;8301;51.440;6.610;2023-05-10T09:00:36;15.20;99.90
16384;DHT22;8301;51.440;6.610;2023-05-10T09:03:03;15.20;99.90
16384;DHT22;8301;51.440;6.610;2023-05-10T09:05:31;15.00;99.90
16384;DHT22;8301;51.440;6.610;2023-05-10T09:07:58;14.70;99.90
16384;DHT22;8301;51.440;6.610;2023-05-10T09:10:28;14.90;99.90
16384;DHT22;8301;51.440;6.610;2023-05-10T09:12:56;14.90;99.90
16384;DHT22;8301;51.440;6.610;2023-05-10T09:15:23;14.90;99.90
16384;DHT22;8301;51.440;6.610;2023-05-10T09:17:50;15.00;99.90
16384;DHT22;8301;51.440;6.610;2023-05-10T09:20:18;15.10;99.90
16384;DHT22;8301;51.440;6.610;2023-05-10T09:22:46;15.20;99.90
16384;DHT22;8301;51.440;6.610;2023-05-10T09:25:13;14.90;99.90
16384;DHT22;8301;51.440;6.610;2023-05-10T09:27:41;14.70;99.90
16384;DHT22;8301;51.440;6.610;2023-05-10T09:30:08;14.50;99.90
16384;DHT22;8301;51.440;6.610;2023-05-10T09:32:36;14.50;99.90
16384;DHT22;8301;51.440;6.610;2023-05-10T09:35:10;14.20;99.90
16384;DHT22;8301;51.440;6.610;2023-05-10T09:37:42;14.10;99.90
16384;DHT22;8301;51.440;6.610;2023-05-10T09:40:07;14.10;99.90
16384;DHT22;8301;51.440;6.610;2023-05-10T09:42:34;14.00;99.90
16384;DHT22;8301;51.440;6.610;2023-05-10T09:45:02;14.00;99.90
16384;DHT22;8301;51.440;6.610;2023-05-10T09:47:31;14.10;99.90
16384;DHT22;8301;51.440;6.610;2023-05-10T09:49:59;14.20;99.90
16384;DHT22;8301;51.440;6.610;2023-05-10T09:52:28;14.20;99.90
16384;DHT22;8301;51.440;6.610;2023-05-10T09:54:55;14.10;99.90
16384;DHT22;8301;51.440;6.610;2023-05-10T09:57:22;14.20;99.90
16384;DHT22;8301;51.440;6.610;2023-05-10T09:59:49;14.10;99.90
16384;DHT22;8301;51.440;6.610;2023-05-10T10:02:16;14.00;99.90
16384;DHT22;8301;51.440;6.610;2023-05-10T10:04:43;14.00;99.90
16384;DHT22;8301;51.440;6.610;2023-05-10T10:07:10;14.10;99.90
16384;DHT22;8301;51.440;6.610;2023-05-10T10:09:37;14.10;99.90
16384;DHT22;8301;51.440;6.610;2023-05-10T10:12:04;14.20;99.90
16384;DHT22;8301;51.440;6.610;2023-05-10T10:14:32;14.30;99.90
16384;DHT22;8301;51.440;6.610;2023-05-10T10:17:00;14.40;99.90
16384;DHT22;8301;51.440;6.610;2023-05-10T10:19:27;14.30;99.90
16384;DHT22;8301;51.440;6.610;2023-05-10T10:21:54;14.30;99.90
16384;DHT22;8301;51.440;6.610;2023-05-10T10:24:21;14.50;99.90
16384;DHT22;8301;51.440;6.610;2023-05-10T10:26:48;14.60;99.90
16384;DHT22;8301;51.440;6.610;2023-05-10T10:29:23;14.50;99.90
16384;DHT22;8301;51.440;6.610;2023-05-10T10:31:53;14.50;99.90
16384;DHT22;8301;51.440;6.610;2023-05-10T10:34:26;14.40;99.90
16384;DHT22;8301;51.440;6.610;2023-05-10T10:36:54;14.30;99.90
16384;DHT22;8301;51.440;6.610;2023-05-10T10:39:22;14.20;99.90
16384;DHT22;8301;51.440;6.610;2023-05-10T10:41:55;14.30;99.90
16384;DHT22;8301;51.440;6.610;2023-05-10T10:44:22;14.20;99.90
16384;DHT22;8301;51.440;6.610;2023-05-10T10:52:15;14.30;99.90
16384;DHT22;8301;51.440;6.610;2023-05-10T10:54:47;14.30;99.90
16384;DHT22;8301;51.440;6.610;2023-05-10T10:57:11;14.40;99.90
16384;DHT22;8301;51.440;6.610;2023-05-10T10:59:43;14.40;99.90
16384;DHT22;8301;51.440;6.610;2023-05-10T11:02:10;14.50;99.90
16384;DHT22;8301;51.440;6.610;2023-05-10T11:04:43;14.60;99.90
16384;DHT22;8301;51.440;6.610;2023-05-10T11:07:21;14.80;99.90
16384;DHT22;8301;51.440;6.610;2023-05-10T11:09:42;14.80;99.90
16384;DHT22;8301;51.440;6.610;2023-05-10T11:12:09;14.70;99.90
16384;DHT22;8301;51.440;6.610;2023-05-10T11:14:35;14.80;99.90
16384;DHT22;8301;51.440;6.610;2023-05-10T11:17:15;14.90;99.90
16384;DHT22;8301;51.440;6.610;2023-05-10T11:19:31;14.90;99.90
16384;DHT22;8301;51.440;6.610;2023-05-10T11:24:32;15.20;99.90
16384;DHT22;8301;51.440;6.610;2023-05-10T11:27:01;14.90;99.90
16384;DHT22;8301;51.440;6.610;2023-05-10T11:29:28;14.80;99.90
16384;DHT22;8301;51.440;6.610;2023-05-10T11:31:57;14.60;99.90
16384;DHT22;8301;51.440;6.610;2023-05-10T11:34:24;14.60;99.90
16384;DHT22;8301;51.440;6.610;2023-05-10T11:36:52;14.60;99.90
16384;DHT22;8301;51.440;6.610;2023-05-10T11:39:20;14.40;99.90
16384;DHT22;8301;51.440;6.610;2023-05-10T11:41:50;14.40;99.90
16384;DHT22;8301;51.440;6.610;2023-05-10T11:44:17;14.50;99.90
16384;DHT22;8301;51.440;6.610;2023-05-10T11:46:44;14.50;99.90
16384;DHT22;8301;51.440;6.610;2023-05-10T11:49:11;14.60;99.90
16384;DHT22;8301;51.440;6.610;2023-05-10T11:51:39;14.80;99.90
16384;DHT22;8301;51.440;6.610;2023-05-10T11:54:08;14.90;99.90
16384;DHT22;8301;51.440;6.610;2023-05-10T11:56:39;15.00;99.90
16384;DHT22;8301;51.440;6.610;2023-05-10T11:59:06;15.10;99.90
16384;DHT22;8301;51.440;6.610;2023-05-10T12:01:33;15.10;99.90
16384;DHT22;8301;51.440;6.610;2023-05-10T12:04:02;14.90;99.90
16384;DHT22;8301;51.440;6.610;2023-05-10T12:06:30;14.90;99.90
16384;DHT22;8301;51.440;6.610;2023-05-10T12:08:57;14.90;99.90
16384;DHT22;8301;51.440;6.610;2023-05-10T12:11:25;15.20;99.90
16384;DHT22;8301;51.440;6.610;2023-05-10T12:13:52;15.30;99.90
16384;DHT22;8301;51.440;6.610;2023-05-10T12:16:20;15.30;99.90
16384;DHT22;8301;51.440;6.610;2023-05-10T12:18:48;15.50;99.90
16384;DHT22;8301;51.440;6.610;2023-05-10T12:21:16;15.40;99.90
16384;DHT22;8301;51.440;6.610;2023-05-10T12:23:44;15.60;99.90
16384;DHT22;8301;51.440;6.610;2023-05-10T12:26:11;15.70;99.90
16384;DHT22;8301;51.440;6.610;2023-05-10T12:28:38;16.20;99.90
16384;DHT22;8301;51.440;6.610;2023-05-10T12:31:08;16.20;99.90
16384;DHT22;8301;51.440;6.610;2023-05-10T12:33:35;16.40;99.90
16384;DHT22;8301;51.440;6.610;2023-05-10T12:36:04;16.40;99.90
16384;DHT22;8301;51.440;6.610;2023-05-10T12:38:35;16.40;99.90
16384;DHT22;8301;51.440;6.610;2023-05-10T12:41:05;16.70;18.50
16384;DHT22;8301;51.440;6.610;2023-05-10T12:43:32;16.80;1.00
16384;DHT22;8301;51.440;6.610;2023-05-10T12:46:06;17.60;99.90
16384;DHT22;8301;51.440;6.610;2023-05-10T12:48:34;18.10;99.90
16384;DHT22;8301;51.440;6.610;2023-05-10T12:51:01;18.20;1.00
16384;DHT22;8301;51.440;6.610;2023-05-10T12:53:28;18.10;99.90
16384;DHT22;8301;51.440;6.610;2023-05-10T12:55:55;18.50;99.90
16384;DHT22;8301;51.440;6.610;2023-05-10T12:58:21;18.60;99.90
16384;DHT22;8301;51.440;6.610;2023-05-10T13:00:48;18.80;1.00
16384;DHT22;8301;51.440;6.610;2023-05-10T13:03:17;18.20;1.00
16384;DHT22;8301;51.440;6.610;2023-05-10T13:05:44;18.10;1.00
16384;DHT22;8301;51.440;6.610;2023-05-10T13:08:11;17.80;1.00
16384;DHT22;8301;51.440;6.610;2023-05-10T13:10:38;17.50;3.20
16384;DHT22;8301;51.440;6.610;2023-05-10T13:13:05;17.30;1.00
16384;DHT22;8301;51.440;6.610;2023-05-10T13:15:34;17.30;1.00
16384;DHT22;8301;51.440;6.610;2023-05-10T13:18:01;17.60;1.00
16384;DHT22;8301;51.440;6.610;2023-05-10T13:20:27;17.70;35.60
16384;DHT22;8301;51.440;6.610;2023-05-10T13:22:54;17.70;1.00
16384;DHT22;8301;51.440;6.610;2023-05-10T13:25:21;17.80;99.90
16384;DHT22;8301;51.440;6.610;2023-05-10T13:27:48;17.90;99.90
16384;DHT22;8301;51.440;6.610;2023-05-10T13:30:15;17.80;1.00
16384;DHT22;8301;51.440;6.610;2023-05-10T13:32:42;18.00;1.00
16384;DHT22;8301;51.440;6.610;2023-05-10T13:35:10;18.10;99.90
16384;DHT22;8301;51.440;6.610;2023-05-10T13:37:36;17.60;99.90
16384;DHT22;8301;51.440;6.610;2023-05-10T13:40:03;17.50;93.10
16384;DHT22;8301;51.440;6.610;2023-05-10T13:42:30;17.50;96.20
16384;DHT22;8301;51.440;6.610;2023-05-10T13:44:59;17.40;99.90
16384;DHT22;8301;51.440;6.610;2023-05-10T13:47:27;17.40;99.90
16384;DHT22;8301;51.440;6.610;2023-05-10T13:49:54;17.60;32.90
16384;DHT22;8301;51.440;6.610;2023-05-10T13:52:21;17.60;1.00
16384;DHT22;8301;51.440;6.610;2023-05-10T13:54:48;17.80;1.00
16384;DHT22;8301;51.440;6.610;2023-05-10T13:57:18;17.90;1.00
16384;DHT22;8301;51.440;6.610;2023-05-10T13:59:45;18.00;57.80
16384;DHT22;8301;51.440;6.610;2023-05-10T14:02:12;18.20;1.00
16384;DHT22;8301;51.440;6.610;2023-05-10T14:04:39;18.70;99.90
16384;DHT22;8301;51.440;6.610;2023-05-10T14:07:05;18.50;1.00
16384;DHT22;8301;51.440;6.610;2023-05-10T14:09:32;18.00;1.00
16384;DHT22;8301;51.440;6.610;2023-05-10T14:11:59;18.30;99.90
16384;DHT22;8301;51.440;6.610;2023-05-10T14:14:28;18.50;1.00
16384;DHT22;8301;51.440;6.610;2023-05-10T14:16:55;18.30;99.90
16384;DHT22;8301;51.440;6.610;2023-05-10T14:19:22;18.20;99.90
16384;DHT22;8301;51.440;6.610;2023-05-10T14:21:48;18.20;1.00
16384;DHT22;8301;51.440;6.610;2023-05-10T14:24:16;18.30;99.90
16384;DHT22;8301;51.440;6.610;2023-05-10T14:26:42;18.20;1.00
16384;DHT22;8301;51.440;6.610;2023-05-10T14:29:09;18.10;1.00
16384;DHT22;8301;51.440;6.610;2023-05-10T14:31:37;18.20;1.00
16384;DHT22;8301;51.440;6.610;2023-05-10T14:36:34;18.30;1.00
16384;DHT22;8301;51.440;6.610;2023-05-10T14:39:00;18.40;99.90
16384;DHT22;8301;51.440;6.610;2023-05-10T14:41:28;18.10;99.90
16384;DHT22;8301;51.440;6.610;2023-05-10T14:43:56;17.70;99.90
16384;DHT22;8301;51.440;6.610;2023-05-10T14:46:22;17.90;1.00
16384;DHT22;8301;51.440;6.610;2023-05-10T14:48:49;17.70;1.00
16384;DHT22;8301;51.440;6.610;2023-05-10T14:51:16;17.70;1.00
16384;DHT22;8301;51.440;6.610;2023-05-10T14:53:44;17.60;1.00
16384;DHT22;8301;51.440;6.610;2023-05-10T14:56:11;17.50;99.90
16384;DHT22;8301;51.440;6.610;2023-05-10T14:58:38;17.40;99.90
16384;DHT22;8301;51.440;6.610;2023-05-10T15:01:04;16.70;1.00
16384;DHT22;8301;51.440;6.610;2023-05-10T15:03:31;16.10;1.00
16384;DHT22;8301;51.440;6.610;2023-05-10T15:05:58;15.90;99.90
16384;DHT22;8301;51.440;6.610;2023-05-10T15:08:25;15.70;1.00
16384;DHT22;8301;51.440;6.610;2023-05-10T15:10:52;15.30;99.90
16384;DHT22;8301;51.440;6.610;2023-05-10T15:15:50;14.80;99.90
16384;DHT22;8301;51.440;6.610;2023-05-10T15:18:17;14.80;99.90
16384;DHT22;8301;51.440;6.610;2023-05-10T15:20:43;14.80;99.90
16384;DHT22;8301;51.440;6.610;2023-05-10T15:23:10;14.60;99.90
16384;DHT22;8301;51.440;6.610;2023-05-10T15:25:37;14.40;99.90
16384;DHT22;8301;51.440;6.610;2023-05-10T15:28:05;14.30;99.90
16384;DHT22;8301;51.440;6.610;2023-05-10T15:30:32;14.30;99.90
16384;DHT22;8301;51.440;6.610;2023-05-10T15:32:59;14.40;99.90
16384;DHT22;8301;51.440;6.610;2023-05-10T15:35:27;14.40;99.90
16384;DHT22;8301;51.440;6.610;2023-05-10T15:37:53;14.30;99.90
16384;DHT22;8301;51.440;6.610;2023-05-10T15:40:20;14.00;99.90
16384;DHT22;8301;51.440;6.610;2023-05-10T15:42:47;13.90;99.90
16384;DHT22;8301;51.440;6.610;2023-05-10T15:45:14;13.80;99.90
16384;DHT22;8301;51.440;6.610;2023-05-10T15:47:41;14.00;99.90
16384;DHT22;8301;51.440;6.610;2023-05-10T15:50:09;13.90;99.90
16384;DHT22;8301;51.440;6.610;2023-05-10T15:52:37;13.90;99.90
16384;DHT22;8301;51.440;6.610;2023-05-10T15:55:04;13.90;99.90
16384;DHT22;8301;51.440;6.610;2023-05-10T15:57:32;13.90;99.90
16384;DHT22;8301;51.440;6.610;2023-05-10T15:59:59;13.80;99.90
16384;DHT22;8301;51.440;6.610;2023-05-10T16:02:26;13.80;99.90
16384;DHT22;8301;51.440;6.610;2023-05-10T16:04:53;13.90;99.90
16384;DHT22;8301;51.440;6.610;2023-05-10T16:07:19;13.90;99.90
16384;DHT22;8301;51.440;6.610;2023-05-10T16:09:46;13.90;99.90
16384;DHT22;8301;51.440;6.610;2023-05-10T16:12:14;14.00;99.90
16384;DHT22;8301;51.440;6.610;2023-05-10T16:14:41;14.00;99.90